createdAt,value
2019-03-22T00:03:42.176Z,79.6
2019-03-22T00:08:38.998Z,79.3
2019-03-22T00:13:35.524Z,80.7
2019-03-22T00:18:31.747Z,80.2
2019-03-22T00:23:28.512Z,79.7
2019-03-22T00:28:25.150Z,80.3
2019-03-22T00:33:21.730Z,80.4
2019-03-22T00:38:18.265Z,79.9
2019-03-22T00:43:14.917Z,80.2
2019-03-22T00:48:11.434Z,80.4
2019-03-22T00:53:08.433Z,81.1
2019-03-22T00:58:05.088Z,80.5
2019-03-22T01:03:01.529Z,80.1
2019-03-22T01:07:58.023Z,81.2
2019-03-22T01:12:54.714Z,81.3
2019-03-22T01:17:51.361Z,81.8
2019-03-22T01:22:48.031Z,81.4
2019-03-22T01:27:44.421Z,80.4
2019-03-22T01:32:41.092Z,80.8
2019-03-22T01:37:37.369Z,80.7
2019-03-22T01:42:34.103Z,79.6
2019-03-22T01:47:30.851Z,78
2019-03-22T01:52:27.386Z,78.4
2019-03-22T01:57:24.044Z,78.5
2019-03-22T02:02:20.034Z,79.3
2019-03-22T02:07:15.553Z,80.4
2019-03-22T02:12:11.684Z,80.2
2019-03-22T02:17:08.499Z,80.3
2019-03-22T02:22:05.001Z,80.5
2019-03-22T02:27:01.633Z,80.8
2019-03-22T02:31:58.245Z,81.4
2019-03-22T02:36:54.631Z,81.8
2019-03-22T02:41:51.111Z,81.6
2019-03-22T02:46:47.732Z,81.8
2019-03-22T02:51:44.393Z,81.7
2019-03-22T02:56:40.769Z,82.4
2019-03-22T03:01:37.043Z,82.3
2019-03-22T03:06:32.882Z,82.7
2019-03-22T03:11:29.422Z,82.9
2019-03-22T03:16:25.910Z,83.5
2019-03-22T03:21:22.451Z,84.5
2019-03-22T03:26:18.948Z,83.8
2019-03-22T03:31:15.486Z,83.5
2019-03-22T03:36:12.130Z,83.7
2019-03-22T03:41:08.763Z,84.4
2019-03-22T03:46:04.401Z,84.5
2019-03-22T03:51:00.936Z,85.1
2019-03-22T03:55:57.585Z,84.5
2019-03-22T04:00:53.978Z,85.2
2019-03-22T04:05:50.631Z,85.7
2019-03-22T04:10:46.951Z,84.6
2019-03-22T04:15:43.498Z,85.1
2019-03-22T04:20:39.546Z,85.1
2019-03-22T04:25:36.217Z,84.6
2019-03-22T04:30:32.735Z,85.5
2019-03-22T04:35:29.495Z,85.1
2019-03-22T04:40:25.844Z,84.2
2019-03-22T04:45:22.667Z,83.6
2019-03-22T04:50:19.559Z,82.5
2019-03-22T04:55:16.304Z,83.4
2019-03-22T05:00:13.381Z,80.8
2019-03-22T05:05:10.151Z,79.7
2019-03-22T05:10:07.055Z,79.6
2019-03-22T05:15:04.929Z,72.5
2019-03-22T05:20:02.688Z,64.4
2019-03-22T05:25:02.894Z,63.2
2019-03-22T05:29:59.805Z,58.9
2019-03-22T05:34:53.205Z,64.1
2019-03-22T05:39:49.477Z,62.1
2019-03-22T05:44:48.315Z,60.3
2019-03-22T05:49:46.433Z,57.4
2019-03-22T05:54:40.679Z,62.5
2019-03-22T05:59:43.295Z,56.2
2019-03-22T06:04:39.763Z,60.3
2019-03-22T06:09:36.777Z,58.3
2019-03-22T06:14:39.194Z,44.2
2019-03-22T06:19:34.227Z,47.6
2019-03-22T06:24:29.757Z,47.6
2019-03-22T06:29:27.109Z,47.4
2019-03-22T06:34:22.916Z,53
2019-03-22T06:39:16.669Z,56.7
2019-03-22T06:44:13.108Z,57.7
2019-03-22T06:49:08.073Z,54.7
2019-03-22T06:54:04.460Z,57.1
2019-03-22T06:59:01.004Z,61
2019-03-22T07:03:58.745Z,58.7
2019-03-22T07:08:55.723Z,58.5
2019-03-22T07:13:53.510Z,54.7
2019-03-22T07:18:49.989Z,56.1
2019-03-22T07:23:45.276Z,56.8
2019-03-22T07:28:42.691Z,54
2019-03-22T07:33:39.033Z,56.3
2019-03-22T07:38:35.930Z,53.6
2019-03-22T07:43:31.975Z,58.3
2019-03-22T07:48:28.962Z,56.6
2019-03-22T07:53:27.478Z,49.3
2019-03-22T07:58:22.185Z,56.7
2019-03-22T08:03:20.269Z,53.4
2019-03-22T08:08:17.007Z,53.3
2019-03-22T08:13:15.760Z,50.5
2019-03-22T08:18:10.817Z,50.8
2019-03-22T08:23:09.459Z,47.9
2019-03-22T08:28:06.819Z,47.2
2019-03-22T08:33:02.867Z,47.8
2019-03-22T08:37:59.056Z,50.3
2019-03-22T08:42:54.944Z,52.6
2019-03-22T08:47:55.023Z,47.2
2019-03-22T08:52:52.255Z,47.1
2019-03-22T08:57:49.869Z,47.5
2019-03-22T09:02:49.473Z,44.1
2019-03-22T09:07:44.722Z,42.2
2019-03-22T09:12:42.099Z,47.2
2019-03-22T09:17:41.368Z,40.8
2019-03-22T09:22:36.054Z,45
2019-03-22T09:27:31.294Z,48.8
2019-03-22T09:32:27.329Z,48.4
2019-03-22T09:37:27.810Z,44.9
2019-03-22T09:42:25.631Z,38.8
2019-03-22T09:47:20.842Z,42.5
2019-03-22T09:52:17.567Z,43.2
2019-03-22T09:57:15.171Z,42.2
2019-03-22T10:02:12.031Z,41.9
2019-03-22T10:07:09.067Z,42.2
2019-03-22T10:12:04.271Z,45.7
2019-03-22T10:17:02.304Z,42.1
2019-03-22T10:21:59.988Z,45.1
2019-03-22T10:26:59.757Z,41.4
2019-03-22T10:31:54.580Z,42.6
2019-03-22T10:36:51.090Z,42.9
2019-03-22T10:41:48.668Z,39
2019-03-22T10:46:44.425Z,40.9
2019-03-22T10:51:58.120Z,40.2
2019-03-22T10:56:53.543Z,37.8
2019-03-22T11:02:03.980Z,39
2019-03-22T11:06:59.286Z,39.7
2019-03-22T11:11:56.108Z,37.7
2019-03-22T11:16:52.398Z,39.3
2019-03-22T11:21:48.609Z,41.8
2019-03-22T11:26:44.822Z,40.9
2019-03-22T11:31:41.743Z,38
2019-03-22T11:36:38.005Z,38
2019-03-22T11:41:34.745Z,37.1
2019-03-22T11:46:32.604Z,38.1
2019-03-22T11:51:30.413Z,37.6
2019-03-22T11:56:26.881Z,37.6
2019-03-22T12:01:24.208Z,38.2
2019-03-22T12:06:20.810Z,35.7
2019-03-22T12:11:18.396Z,34.4
2019-03-22T12:16:15.424Z,34.6
2019-03-22T12:21:11.104Z,38
2019-03-22T12:26:08.484Z,35.4
2019-03-22T12:31:05.251Z,33.8
2019-03-22T12:36:02.588Z,35.1
2019-03-22T12:40:58.292Z,35.1
2019-03-22T12:45:54.677Z,34.2
2019-03-22T12:50:51.357Z,35
2019-03-22T12:55:49.006Z,33.1
2019-03-22T13:00:45.400Z,33.6
2019-03-22T13:05:42.273Z,33.3
2019-03-22T13:10:38.245Z,35.4
2019-03-22T13:15:35.457Z,35
2019-03-22T13:20:31.214Z,34.1
2019-03-22T13:25:27.843Z,34.8
2019-03-22T13:30:24.857Z,32.7
2019-03-22T13:35:21.213Z,34.4
2019-03-22T13:40:17.885Z,34.5
2019-03-22T13:45:14.546Z,35.9
2019-03-22T13:50:11.282Z,34.9
2019-03-22T13:55:09.020Z,33.9
2019-03-22T14:00:05.918Z,34.6
2019-03-22T14:05:02.594Z,33.1
2019-03-22T14:09:59.436Z,33.1
2019-03-22T14:14:56.533Z,33.3
2019-03-22T14:19:53.229Z,32.6
2019-03-22T14:24:49.807Z,31.7
2019-03-22T14:29:46.109Z,34.1
2019-03-22T14:34:42.550Z,32.7
2019-03-22T14:39:39.162Z,33
2019-03-22T14:44:35.410Z,33
2019-03-22T14:49:32.585Z,31.8
2019-03-22T14:54:29.603Z,31.3
2019-03-22T14:59:26.521Z,33.1
2019-03-22T15:04:22.794Z,32.5
2019-03-22T15:09:19.528Z,34.6
2019-03-22T15:14:15.914Z,34
2019-03-22T15:19:12.853Z,35.5
2019-03-22T15:24:09.631Z,35
2019-03-22T15:29:06.610Z,35.1
2019-03-22T15:34:05.133Z,35.2
2019-03-22T15:39:01.824Z,37.2
2019-03-22T15:43:58.830Z,37.4
2019-03-22T15:48:55.559Z,35.6
2019-03-22T15:53:52.487Z,36.4
2019-03-22T15:58:49.328Z,36.9
2019-03-22T16:03:46.270Z,37.8
2019-03-22T16:08:42.817Z,36.8
2019-03-22T16:13:39.301Z,35.8
2019-03-22T16:18:36.274Z,36.4
2019-03-22T16:23:32.855Z,37.3
2019-03-22T16:28:29.563Z,38.1
2019-03-22T16:33:26.601Z,38.4
2019-03-22T16:38:23.361Z,39.1
2019-03-22T16:43:19.750Z,40.6
2019-03-22T16:48:16.178Z,43.5
2019-03-22T16:53:13.119Z,43.7
2019-03-22T16:58:09.358Z,46.4
2019-03-22T17:03:05.727Z,48.8
2019-03-22T17:08:02.389Z,48.7
2019-03-22T17:12:58.916Z,49
2019-03-22T17:17:55.178Z,49.6
2019-03-22T17:22:52.762Z,48
2019-03-22T17:27:49.134Z,50.4
2019-03-22T17:32:45.963Z,50.2
2019-03-22T17:37:42.419Z,52.1
2019-03-22T17:42:39.379Z,48.3
2019-03-22T17:47:35.975Z,50.4
2019-03-22T17:52:32.544Z,53
2019-03-22T17:57:29.531Z,51.3
2019-03-22T18:02:26.769Z,51.9
2019-03-22T18:07:24.384Z,53
2019-03-22T18:12:20.132Z,53.8
2019-03-22T18:17:17.632Z,48.7
2019-03-22T18:22:15.328Z,50.4
2019-03-22T18:27:11.814Z,51.6
2019-03-22T18:32:08.387Z,52.8
2019-03-22T18:37:06.060Z,47.8
2019-03-22T18:42:02.045Z,50.8
2019-03-22T18:46:58.804Z,51
2019-03-22T18:51:55.620Z,52.4
2019-03-22T18:56:52.326Z,55.1
2019-03-22T19:01:49.017Z,54.2
2019-03-22T19:06:46.145Z,53.3
2019-03-22T19:11:42.900Z,55.6
2019-03-22T19:16:39.541Z,56.4
2019-03-22T19:21:36.001Z,54.9
2019-03-22T19:26:32.941Z,55.6
2019-03-22T19:31:29.704Z,53.5
2019-03-22T19:36:26.820Z,52.7
2019-03-22T19:41:23.693Z,55
2019-03-22T19:46:20.524Z,54
2019-03-22T19:51:17.102Z,53.1
2019-03-22T19:56:14.093Z,54.3
2019-03-22T20:01:10.407Z,53
2019-03-22T20:06:07.034Z,53.2
2019-03-22T20:11:04.055Z,55.2
2019-03-22T20:16:00.323Z,53.8
2019-03-22T20:20:57.531Z,51.7
2019-03-22T20:25:54.126Z,53.5
2019-03-22T20:30:50.907Z,53.9
2019-03-22T20:35:47.663Z,55.7
2019-03-22T20:40:44.718Z,53.2
2019-03-22T20:45:41.581Z,53.2
2019-03-22T20:50:38.627Z,52.5
2019-03-22T20:55:35.220Z,54.3
2019-03-22T21:00:32.357Z,53
2019-03-22T21:05:29.127Z,54.8
2019-03-22T21:10:26.197Z,53.4
2019-03-22T21:15:25.032Z,53
2019-03-22T21:20:21.175Z,52.1
2019-03-22T21:25:17.654Z,52.8
2019-03-22T21:30:14.258Z,53.1
2019-03-22T21:35:23.048Z,53.2
2019-03-22T21:40:17.644Z,52.5
2019-03-22T21:45:14.627Z,51.8
2019-03-22T21:50:11.191Z,52.3
2019-03-22T21:55:07.981Z,52.9
2019-03-22T22:00:04.786Z,54.4
2019-03-22T22:05:01.313Z,53.3
2019-03-22T22:09:58.179Z,52.8
2019-03-22T22:14:54.632Z,53.5
2019-03-22T22:19:51.402Z,54.4
2019-03-22T22:24:48.101Z,54.5
2019-03-22T22:29:45.751Z,55.3
2019-03-22T22:34:43.413Z,56.3
2019-03-22T22:39:40.181Z,55.4
2019-03-22T22:44:36.945Z,57.7
2019-03-22T22:49:33.476Z,55.4
2019-03-22T22:54:30.001Z,56.9
2019-03-22T22:59:26.461Z,56
2019-03-22T23:04:23.025Z,57.1
2019-03-22T23:09:19.508Z,55.7
2019-03-22T23:14:16.491Z,56
2019-03-22T23:19:13.045Z,55.5
2019-03-22T23:24:09.713Z,55.1
2019-03-22T23:29:06.355Z,55.4
2019-03-22T23:34:02.963Z,55
2019-03-22T23:38:59.563Z,55.2
2019-03-22T23:43:55.927Z,54.9
2019-03-22T23:48:52.155Z,56.7
2019-03-22T23:53:48.603Z,55.9
2019-03-22T23:58:44.006Z,56.8
